sensor_id;sensor_type;location;lat;lon;timestamp;temperature;humidity
55492;DHT22;41354;52.990;6.878;2022-08-11T00:06:07;16.20;99.90
55492;DHT22;41354;52.990;6.878;2022-08-11T00:09:14;16.20;99.90
55492;DHT22;41354;52.990;6.878;2022-08-11T00:15:23;16.10;99.90
55492;DHT22;41354;52.990;6.878;2022-08-11T00:18:39;16.10;99.90
55492;DHT22;41354;52.990;6.878;2022-08-11T00:21:15;16.20;99.90
55492;DHT22;41354;52.990;6.878;2022-08-11T00:24:06;16.10;99.90
55492;DHT22;41354;52.990;6.878;2022-08-11T00:26:56;16.10;99.90
55492;DHT22;41354;52.990;6.878;2022-08-11T00:29:31;16.10;99.90
55492;DHT22;41354;52.990;6.878;2022-08-11T00:32:00;16.20;99.90
55492;DHT22;41354;52.990;6.878;2022-08-11T00:34:45;16.00;99.90
55492;DHT22;41354;52.990;6.878;2022-08-11T00:37:34;16.00;99.90
55492;DHT22;41354;52.990;6.878;2022-08-11T00:40:02;16.00;99.90
55492;DHT22;41354;52.990;6.878;2022-08-11T00:42:59;16.00;99.90
55492;DHT22;41354;52.990;6.878;2022-08-11T01:00:13;15.80;99.90
55492;DHT22;41354;52.990;6.878;2022-08-11T01:30:14;15.70;99.90
55492;DHT22;41354;52.990;6.878;2022-08-11T01:36:21;15.70;99.90
55492;DHT22;41354;52.990;6.878;2022-08-11T01:39:23;15.70;99.90
55492;DHT22;41354;52.990;6.878;2022-08-11T01:45:31;15.70;99.90
55492;DHT22;41354;52.990;6.878;2022-08-11T01:50:39;15.60;99.90
55492;DHT22;41354;52.990;6.878;2022-08-11T01:53:32;15.60;99.90
55492;DHT22;41354;52.990;6.878;2022-08-11T01:57:03;15.50;99.90
55492;DHT22;41354;52.990;6.878;2022-08-11T01:59:22;15.50;99.90
55492;DHT22;41354;52.990;6.878;2022-08-11T02:02:08;15.50;99.90
55492;DHT22;41354;52.990;6.878;2022-08-11T02:04:49;15.50;99.90
55492;DHT22;41354;52.990;6.878;2022-08-11T02:07:29;15.50;99.90
55492;DHT22;41354;52.990;6.878;2022-08-11T02:13:31;15.50;99.90
55492;DHT22;41354;52.990;6.878;2022-08-11T02:18:46;15.60;99.90
55492;DHT22;41354;52.990;6.878;2022-08-11T02:24:57;15.50;99.90
55492;DHT22;41354;52.990;6.878;2022-08-11T02:27:31;15.50;99.90
55492;DHT22;41354;52.990;6.878;2022-08-11T02:30:06;15.50;99.90
55492;DHT22;41354;52.990;6.878;2022-08-11T02:32:44;15.50;99.90
55492;DHT22;41354;52.990;6.878;2022-08-11T02:35:42;15.40;99.90
55492;DHT22;41354;52.990;6.878;2022-08-11T02:38:17;15.40;99.90
55492;DHT22;41354;52.990;6.878;2022-08-11T02:44:05;15.30;99.90
55492;DHT22;41354;52.990;6.878;2022-08-11T02:46:50;15.30;99.90
55492;DHT22;41354;52.990;6.878;2022-08-11T02:49:43;15.30;99.90
55492;DHT22;41354;52.990;6.878;2022-08-11T02:55:31;15.30;99.90
55492;DHT22;41354;52.990;6.878;2022-08-11T03:01:15;15.30;99.90
55492;DHT22;41354;52.990;6.878;2022-08-11T03:03:51;15.20;99.90
55492;DHT22;41354;52.990;6.878;2022-08-11T03:09:41;15.10;99.90
55492;DHT22;41354;52.990;6.878;2022-08-11T03:12:19;15.10;99.90
55492;DHT22;41354;52.990;6.878;2022-08-11T03:15:42;15.10;99.90
55492;DHT22;41354;52.990;6.878;2022-08-11T03:18:40;15.10;99.90
55492;DHT22;41354;52.990;6.878;2022-08-11T03:21:16;15.10;99.90
55492;DHT22;41354;52.990;6.878;2022-08-11T03:24:02;15.10;99.90
55492;DHT22;41354;52.990;6.878;2022-08-11T03:26:55;15.10;99.90
55492;DHT22;41354;52.990;6.878;2022-08-11T03:29:43;15.10;99.90
55492;DHT22;41354;52.990;6.878;2022-08-11T03:32:20;15.10;99.90
55492;DHT22;41354;52.990;6.878;2022-08-11T03:34:49;15.10;99.90
55492;DHT22;41354;52.990;6.878;2022-08-11T03:37:46;15.10;99.90
55492;DHT22;41354;52.990;6.878;2022-08-11T03:40:40;15.10;99.90
55492;DHT22;41354;52.990;6.878;2022-08-11T03:49:43;15.00;99.90
55492;DHT22;41354;52.990;6.878;2022-08-11T03:52:27;14.90;99.90
55492;DHT22;41354;52.990;6.878;2022-08-11T03:58:08;14.90;99.90
55492;DHT22;41354;52.990;6.878;2022-08-11T04:13:48;14.70;99.90
55492;DHT22;41354;52.990;6.878;2022-08-11T04:16:40;14.60;99.90
55492;DHT22;41354;52.990;6.878;2022-08-11T04:22:21;14.60;99.90
55492;DHT22;41354;52.990;6.878;2022-08-11T04:25:21;14.60;99.90
55492;DHT22;41354;52.990;6.878;2022-08-11T04:31:04;14.50;99.90
55492;DHT22;41354;52.990;6.878;2022-08-11T04:33:58;14.50;99.90
55492;DHT22;41354;52.990;6.878;2022-08-11T04:36:40;14.60;99.90
55492;DHT22;41354;52.990;6.878;2022-08-11T05:00:23;14.90;99.90
55492;DHT22;41354;52.990;6.878;2022-08-11T05:14:21;15.00;99.90
55492;DHT22;41354;52.990;6.878;2022-08-11T05:17:12;15.10;99.90
55492;DHT22;41354;52.990;6.878;2022-08-11T05:19:57;15.20;99.90
55492;DHT22;41354;52.990;6.878;2022-08-11T05:22:47;15.30;99.90
55492;DHT22;41354;52.990;6.878;2022-08-11T05:25:34;15.40;99.90
55492;DHT22;41354;52.990;6.878;2022-08-11T05:28:32;15.50;99.90
55492;DHT22;41354;52.990;6.878;2022-08-11T05:31:21;15.60;99.90
55492;DHT22;41354;52.990;6.878;2022-08-11T05:34:21;15.70;99.90
55492;DHT22;41354;52.990;6.878;2022-08-11T05:37:10;15.80;99.90
55492;DHT22;41354;52.990;6.878;2022-08-11T05:39:48;15.90;99.90
55492;DHT22;41354;52.990;6.878;2022-08-11T05:42:35;16.00;99.90
55492;DHT22;41354;52.990;6.878;2022-08-11T05:45:21;16.10;99.90
55492;DHT22;41354;52.990;6.878;2022-08-11T05:48:06;16.20;99.90
55492;DHT22;41354;52.990;6.878;2022-08-11T05:50:59;16.40;99.90
55492;DHT22;41354;52.990;6.878;2022-08-11T05:53:52;16.50;99.90
55492;DHT22;41354;52.990;6.878;2022-08-11T05:56:52;16.60;99.90
55492;DHT22;41354;52.990;6.878;2022-08-11T05:59:21;16.80;99.90
55492;DHT22;41354;52.990;6.878;2022-08-11T06:01:48;16.90;99.90
55492;DHT22;41354;52.990;6.878;2022-08-11T06:04:22;16.90;99.90
55492;DHT22;41354;52.990;6.878;2022-08-11T06:07:09;17.10;99.90
55492;DHT22;41354;52.990;6.878;2022-08-11T06:09:49;17.20;99.90
55492;DHT22;41354;52.990;6.878;2022-08-11T06:12:27;17.30;99.90
55492;DHT22;41354;52.990;6.878;2022-08-11T06:14:56;17.40;99.90
55492;DHT22;41354;52.990;6.878;2022-08-11T06:17:23;17.40;99.90
55492;DHT22;41354;52.990;6.878;2022-08-11T06:19:49;17.50;99.90
55492;DHT22;41354;52.990;6.878;2022-08-11T06:22:21;17.60;99.90
55492;DHT22;41354;52.990;6.878;2022-08-11T06:24:55;17.80;99.90
55492;DHT22;41354;52.990;6.878;2022-08-11T06:27:23;17.90;99.90
55492;DHT22;41354;52.990;6.878;2022-08-11T06:29:51;18.00;99.90
55492;DHT22;41354;52.990;6.878;2022-08-11T06:32:20;18.10;99.90
55492;DHT22;41354;52.990;6.878;2022-08-11T06:35:21;18.20;99.90
55492;DHT22;41354;52.990;6.878;2022-08-11T06:38:08;18.30;99.90
55492;DHT22;41354;52.990;6.878;2022-08-11T06:40:57;18.40;99.90
55492;DHT22;41354;52.990;6.878;2022-08-11T06:46:10;18.70;99.90
55492;DHT22;41354;52.990;6.878;2022-08-11T06:48:40;18.80;99.90
55492;DHT22;41354;52.990;6.878;2022-08-11T06:51:10;19.00;99.90
55492;DHT22;41354;52.990;6.878;2022-08-11T06:53:51;19.10;99.90
55492;DHT22;41354;52.990;6.878;2022-08-11T06:56:28;19.20;99.90
55492;DHT22;41354;52.990;6.878;2022-08-11T06:59:14;19.40;99.90
55492;DHT22;41354;52.990;6.878;2022-08-11T07:02:12;19.60;99.90
55492;DHT22;41354;52.990;6.878;2022-08-11T07:04:41;19.90;99.90
55492;DHT22;41354;52.990;6.878;2022-08-11T07:13:09;21.00;99.90
55492;DHT22;41354;52.990;6.878;2022-08-11T07:15:56;21.40;99.90
55492;DHT22;41354;52.990;6.878;2022-08-11T07:18:30;21.80;99.90
55492;DHT22;41354;52.990;6.878;2022-08-11T07:21:31;22.00;99.90
55492;DHT22;41354;52.990;6.878;2022-08-11T07:24:25;22.20;99.90
55492;DHT22;41354;52.990;6.878;2022-08-11T07:27:13;22.50;99.90
55492;DHT22;41354;52.990;6.878;2022-08-11T07:30:03;22.70;99.90
55492;DHT22;41354;52.990;6.878;2022-08-11T07:32:32;22.90;99.90
55492;DHT22;41354;52.990;6.878;2022-08-11T07:35:10;23.10;99.90
55492;DHT22;41354;52.990;6.878;2022-08-11T07:37:47;23.30;99.90
55492;DHT22;41354;52.990;6.878;2022-08-11T07:40:22;23.50;99.90
55492;DHT22;41354;52.990;6.878;2022-08-11T07:42:49;23.60;99.90
55492;DHT22;41354;52.990;6.878;2022-08-11T07:45:16;23.80;99.90
55492;DHT22;41354;52.990;6.878;2022-08-11T07:48:01;24.00;99.90
55492;DHT22;41354;52.990;6.878;2022-08-11T07:50:47;24.00;99.90
55492;DHT22;41354;52.990;6.878;2022-08-11T07:53:33;24.00;99.90
55492;DHT22;41354;52.990;6.878;2022-08-11T07:56:00;24.20;99.90
55492;DHT22;41354;52.990;6.878;2022-08-11T07:58:28;24.40;99.90
55492;DHT22;41354;52.990;6.878;2022-08-11T08:01:21;24.70;99.90
55492;DHT22;41354;52.990;6.878;2022-08-11T08:04:07;25.00;99.90
55492;DHT22;41354;52.990;6.878;2022-08-11T08:06:53;25.00;99.90
55492;DHT22;41354;52.990;6.878;2022-08-11T08:09:38;25.30;99.90
55492;DHT22;41354;52.990;6.878;2022-08-11T08:12:24;25.50;99.90
55492;DHT22;41354;52.990;6.878;2022-08-11T08:15:10;25.70;99.90
55492;DHT22;41354;52.990;6.878;2022-08-11T08:17:57;25.80;99.90
55492;DHT22;41354;52.990;6.878;2022-08-11T08:20:30;26.00;99.90
55492;DHT22;41354;52.990;6.878;2022-08-11T08:22:58;26.10;99.90
55492;DHT22;41354;52.990;6.878;2022-08-11T08:25:25;26.30;99.90
55492;DHT22;41354;52.990;6.878;2022-08-11T08:27:53;26.40;99.90
55492;DHT22;41354;52.990;6.878;2022-08-11T08:30:19;26.50;99.90
55492;DHT22;41354;52.990;6.878;2022-08-11T08:33:04;26.70;99.90
55492;DHT22;41354;52.990;6.878;2022-08-11T08:35:30;26.70;99.90
55492;DHT22;41354;52.990;6.878;2022-08-11T08:37:56;26.80;99.90
55492;DHT22;41354;52.990;6.878;2022-08-11T08:40:24;27.10;99.90
55492;DHT22;41354;52.990;6.878;2022-08-11T08:43:02;27.20;99.90
55492;DHT22;41354;52.990;6.878;2022-08-11T08:45:29;27.20;99.70
55492;DHT22;41354;52.990;6.878;2022-08-11T08:48:05;27.40;95.60
55492;DHT22;41354;52.990;6.878;2022-08-11T08:50:35;27.50;92.10
55492;DHT22;41354;52.990;6.878;2022-08-11T08:53:25;27.80;94.40
55492;DHT22;41354;52.990;6.878;2022-08-11T08:55:57;28.10;90.10
55492;DHT22;41354;52.990;6.878;2022-08-11T08:58:24;28.30;86.20
55492;DHT22;41354;52.990;6.878;2022-08-11T09:00:52;28.50;88.20
55492;DHT22;41354;52.990;6.878;2022-08-11T09:03:19;28.70;76.90
55492;DHT22;41354;52.990;6.878;2022-08-11T09:05:46;28.80;74.00
55492;DHT22;41354;52.990;6.878;2022-08-11T09:08:13;28.80;72.90
55492;DHT22;41354;52.990;6.878;2022-08-11T09:10:39;28.90;67.60
55492;DHT22;41354;52.990;6.878;2022-08-11T09:13:05;29.00;66.30
55492;DHT22;41354;52.990;6.878;2022-08-11T09:15:33;29.00;65.20
55492;DHT22;41354;52.990;6.878;2022-08-11T09:18:01;29.10;65.30
55492;DHT22;41354;52.990;6.878;2022-08-11T09:20:35;29.00;62.70
55492;DHT22;41354;52.990;6.878;2022-08-11T09:23:06;29.10;63.60
55492;DHT22;41354;52.990;6.878;2022-08-11T09:25:56;29.30;61.30
55492;DHT22;41354;52.990;6.878;2022-08-11T09:28:43;29.60;61.60
55492;DHT22;41354;52.990;6.878;2022-08-11T09:31:10;29.80;60.60
55492;DHT22;41354;52.990;6.878;2022-08-11T09:33:39;29.90;59.00
55492;DHT22;41354;52.990;6.878;2022-08-11T09:36:06;29.90;56.10
55492;DHT22;41354;52.990;6.878;2022-08-11T09:38:52;30.00;55.60
55492;DHT22;41354;52.990;6.878;2022-08-11T09:41:37;30.10;54.90
55492;DHT22;41354;52.990;6.878;2022-08-11T09:44:05;30.20;54.80
55492;DHT22;41354;52.990;6.878;2022-08-11T09:46:51;30.20;53.30
55492;DHT22;41354;52.990;6.878;2022-08-11T09:49:19;30.30;53.30
55492;DHT22;41354;52.990;6.878;2022-08-11T09:51:46;30.40;52.20
55492;DHT22;41354;52.990;6.878;2022-08-11T09:54:12;30.50;51.30
55492;DHT22;41354;52.990;6.878;2022-08-11T09:56:38;30.50;51.60
55492;DHT22;41354;52.990;6.878;2022-08-11T09:59:22;30.40;50.90
55492;DHT22;41354;52.990;6.878;2022-08-11T10:01:51;30.70;51.90
55492;DHT22;41354;52.990;6.878;2022-08-11T10:04:34;30.70;50.00
55492;DHT22;41354;52.990;6.878;2022-08-11T10:07:02;30.70;48.90
55492;DHT22;41354;52.990;6.878;2022-08-11T10:12:10;30.80;49.90
55492;DHT22;41354;52.990;6.878;2022-08-11T10:14:43;30.90;49.90
55492;DHT22;41354;52.990;6.878;2022-08-11T10:17:32;31.00;49.80
55492;DHT22;41354;52.990;6.878;2022-08-11T10:19:59;31.20;50.40
55492;DHT22;41354;52.990;6.878;2022-08-11T10:22:27;31.40;49.70
55492;DHT22;41354;52.990;6.878;2022-08-11T10:25:13;31.50;48.90
55492;DHT22;41354;52.990;6.878;2022-08-11T10:27:58;31.50;47.90
55492;DHT22;41354;52.990;6.878;2022-08-11T10:30:25;31.50;47.40
55492;DHT22;41354;52.990;6.878;2022-08-11T10:33:13;31.40;47.70
55492;DHT22;41354;52.990;6.878;2022-08-11T10:36:00;31.60;47.70
55492;DHT22;41354;52.990;6.878;2022-08-11T10:38:27;31.70;47.30
55492;DHT22;41354;52.990;6.878;2022-08-11T10:40:54;31.80;47.30
55492;DHT22;41354;52.990;6.878;2022-08-11T10:43:38;31.90;47.40
55492;DHT22;41354;52.990;6.878;2022-08-11T10:46:07;31.90;45.90
55492;DHT22;41354;52.990;6.878;2022-08-11T10:48:54;31.90;46.50
55492;DHT22;41354;52.990;6.878;2022-08-11T10:51:21;32.10;46.20
55492;DHT22;41354;52.990;6.878;2022-08-11T10:54:07;32.00;45.80
55492;DHT22;41354;52.990;6.878;2022-08-11T10:56:53;32.10;46.10
55492;DHT22;41354;52.990;6.878;2022-08-11T10:59:38;32.20;45.40
55492;DHT22;41354;52.990;6.878;2022-08-11T11:02:09;32.40;45.00
55492;DHT22;41354;52.990;6.878;2022-08-11T11:07:21;32.70;44.30
55492;DHT22;41354;52.990;6.878;2022-08-11T11:10:00;32.70;44.30
55492;DHT22;41354;52.990;6.878;2022-08-11T11:15:17;32.50;44.30
55492;DHT22;41354;52.990;6.878;2022-08-11T11:18:08;32.50;44.40
55492;DHT22;41354;52.990;6.878;2022-08-11T11:20:42;32.80;43.60
55492;DHT22;41354;52.990;6.878;2022-08-11T11:23:13;32.70;44.10
55492;DHT22;41354;52.990;6.878;2022-08-11T11:28:49;33.20;43.10
55492;DHT22;41354;52.990;6.878;2022-08-11T11:31:49;33.10;42.20
55492;DHT22;41354;52.990;6.878;2022-08-11T11:34:38;32.90;41.20
55492;DHT22;41354;52.990;6.878;2022-08-11T11:37:07;33.00;42.50
55492;DHT22;41354;52.990;6.878;2022-08-11T11:39:34;33.10;42.50
55492;DHT22;41354;52.990;6.878;2022-08-11T11:42:09;33.50;43.10
55492;DHT22;41354;52.990;6.878;2022-08-11T11:44:37;33.60;43.10
55492;DHT22;41354;52.990;6.878;2022-08-11T11:47:04;33.30;42.70
55492;DHT22;41354;52.990;6.878;2022-08-11T11:49:31;33.30;43.10
55492;DHT22;41354;52.990;6.878;2022-08-11T11:51:58;33.60;43.20
55492;DHT22;41354;52.990;6.878;2022-08-11T11:54:28;33.90;42.50
55492;DHT22;41354;52.990;6.878;2022-08-11T11:56:56;34.20;42.90
55492;DHT22;41354;52.990;6.878;2022-08-11T11:59:24;34.20;42.20
55492;DHT22;41354;52.990;6.878;2022-08-11T12:02:12;34.30;42.00
55492;DHT22;41354;52.990;6.878;2022-08-11T12:04:44;34.50;42.80
55492;DHT22;41354;52.990;6.878;2022-08-11T12:07:12;34.60;42.00
55492;DHT22;41354;52.990;6.878;2022-08-11T12:09:57;34.60;41.80
55492;DHT22;41354;52.990;6.878;2022-08-11T12:12:24;34.50;41.40
55492;DHT22;41354;52.990;6.878;2022-08-11T12:15:09;34.30;40.80
55492;DHT22;41354;52.990;6.878;2022-08-11T12:17:47;34.20;40.70
55492;DHT22;41354;52.990;6.878;2022-08-11T12:20:27;34.40;41.00
55492;DHT22;41354;52.990;6.878;2022-08-11T12:23:26;34.30;39.00
55492;DHT22;41354;52.990;6.878;2022-08-11T12:26:23;34.50;39.20
55492;DHT22;41354;52.990;6.878;2022-08-11T12:29:11;34.80;40.40
55492;DHT22;41354;52.990;6.878;2022-08-11T12:31:38;35.10;41.00
55492;DHT22;41354;52.990;6.878;2022-08-11T12:34:07;35.10;40.50
55492;DHT22;41354;52.990;6.878;2022-08-11T12:36:39;35.10;40.50
55492;DHT22;41354;52.990;6.878;2022-08-11T12:39:10;34.90;39.60
55492;DHT22;41354;52.990;6.878;2022-08-11T12:41:45;34.80;39.60
55492;DHT22;41354;52.990;6.878;2022-08-11T12:44:30;34.90;39.80
55492;DHT22;41354;52.990;6.878;2022-08-11T12:47:22;34.90;39.80
55492;DHT22;41354;52.990;6.878;2022-08-11T12:49:49;34.90;39.40
55492;DHT22;41354;52.990;6.878;2022-08-11T12:52:44;34.90;38.90
55492;DHT22;41354;52.990;6.878;2022-08-11T12:55:20;34.90;39.40
55492;DHT22;41354;52.990;6.878;2022-08-11T12:58:13;34.90;39.20
55492;DHT22;41354;52.990;6.878;2022-08-11T13:00:46;35.20;39.60
55492;DHT22;41354;52.990;6.878;2022-08-11T13:03:34;35.30;39.00
55492;DHT22;41354;52.990;6.878;2022-08-11T13:06:23;35.60;38.80
55492;DHT22;41354;52.990;6.878;2022-08-11T13:09:07;35.40;38.50
55492;DHT22;41354;52.990;6.878;2022-08-11T13:11:33;35.50;38.50
55492;DHT22;41354;52.990;6.878;2022-08-11T13:14:21;35.40;39.00
55492;DHT22;41354;52.990;6.878;2022-08-11T13:16:50;35.40;39.10
55492;DHT22;41354;52.990;6.878;2022-08-11T13:19:43;35.60;38.40
55492;DHT22;41354;52.990;6.878;2022-08-11T13:22:18;35.60;39.20
55492;DHT22;41354;52.990;6.878;2022-08-11T13:24:49;35.50;38.80
55492;DHT22;41354;52.990;6.878;2022-08-11T13:27:20;35.40;38.50
55492;DHT22;41354;52.990;6.878;2022-08-11T13:29:59;35.30;37.90
55492;DHT22;41354;52.990;6.878;2022-08-11T13:33:24;35.40;37.50
55492;DHT22;41354;52.990;6.878;2022-08-11T13:36:06;35.60;36.70
55492;DHT22;41354;52.990;6.878;2022-08-11T13:38:35;36.00;37.00
55492;DHT22;41354;52.990;6.878;2022-08-11T13:41:02;36.00;37.80
55492;DHT22;41354;52.990;6.878;2022-08-11T13:44:15;35.90;36.70
55492;DHT22;41354;52.990;6.878;2022-08-11T13:46:41;35.80;36.70
55492;DHT22;41354;52.990;6.878;2022-08-11T13:49:19;35.90;37.80
55492;DHT22;41354;52.990;6.878;2022-08-11T13:51:48;36.20;37.70
55492;DHT22;41354;52.990;6.878;2022-08-11T13:54:22;36.40;37.10
55492;DHT22;41354;52.990;6.878;2022-08-11T13:56:53;36.40;36.80
55492;DHT22;41354;52.990;6.878;2022-08-11T13:59:35;36.10;36.70
55492;DHT22;41354;52.990;6.878;2022-08-11T14:02:32;36.00;37.10
55492;DHT22;41354;52.990;6.878;2022-08-11T14:05:02;36.30;37.60
55492;DHT22;41354;52.990;6.878;2022-08-11T14:07:45;36.70;36.50
55492;DHT22;41354;52.990;6.878;2022-08-11T14:10:16;36.90;36.10
55492;DHT22;41354;52.990;6.878;2022-08-11T14:12:49;36.70;35.90
55492;DHT22;41354;52.990;6.878;2022-08-11T14:15:38;36.60;36.20
55492;DHT22;41354;52.990;6.878;2022-08-11T14:18:16;36.50;36.50
55492;DHT22;41354;52.990;6.878;2022-08-11T14:20:58;36.30;37.10
55492;DHT22;41354;52.990;6.878;2022-08-11T14:23:59;36.50;37.90
55492;DHT22;41354;52.990;6.878;2022-08-11T14:26:28;37.00;37.10
55492;DHT22;41354;52.990;6.878;2022-08-11T14:29:04;36.90;36.30
55492;DHT22;41354;52.990;6.878;2022-08-11T14:31:33;36.70;35.90
55492;DHT22;41354;52.990;6.878;2022-08-11T14:34:03;36.80;36.00
55492;DHT22;41354;52.990;6.878;2022-08-11T14:37:09;37.00;36.80
55492;DHT22;41354;52.990;6.878;2022-08-11T14:40:03;37.30;37.50
55492;DHT22;41354;52.990;6.878;2022-08-11T14:42:50;37.70;37.20
55492;DHT22;41354;52.990;6.878;2022-08-11T14:45:34;37.90;36.60
55492;DHT22;41354;52.990;6.878;2022-08-11T14:48:21;37.80;36.90
55492;DHT22;41354;52.990;6.878;2022-08-11T14:50:50;37.50;36.40
55492;DHT22;41354;52.990;6.878;2022-08-11T14:53:24;37.20;36.30
55492;DHT22;41354;52.990;6.878;2022-08-11T14:56:06;36.90;37.00
55492;DHT22;41354;52.990;6.878;2022-08-11T14:59:00;37.10;36.90
55492;DHT22;41354;52.990;6.878;2022-08-11T15:01:54;37.20;36.70
55492;DHT22;41354;52.990;6.878;2022-08-11T15:04:38;37.40;36.30
55492;DHT22;41354;52.990;6.878;2022-08-11T15:07:13;37.10;36.50
55492;DHT22;41354;52.990;6.878;2022-08-11T15:09:48;37.30;37.80
55492;DHT22;41354;52.990;6.878;2022-08-11T15:12:17;37.20;36.80
55492;DHT22;41354;52.990;6.878;2022-08-11T15:14:46;37.50;36.80
55492;DHT22;41354;52.990;6.878;2022-08-11T15:17:37;37.80;37.00
55492;DHT22;41354;52.990;6.878;2022-08-11T15:20:20;38.20;36.40
55492;DHT22;41354;52.990;6.878;2022-08-11T15:23:05;38.20;35.80
55492;DHT22;41354;52.990;6.878;2022-08-11T15:26:17;38.10;36.20
55492;DHT22;41354;52.990;6.878;2022-08-11T15:29:19;38.00;36.30
55492;DHT22;41354;52.990;6.878;2022-08-11T15:32:30;37.80;35.70
55492;DHT22;41354;52.990;6.878;2022-08-11T15:35:17;37.50;37.10
55492;DHT22;41354;52.990;6.878;2022-08-11T15:38:09;37.30;36.20
55492;DHT22;41354;52.990;6.878;2022-08-11T15:40:43;37.30;36.30
55492;DHT22;41354;52.990;6.878;2022-08-11T15:43:48;37.50;36.20
55492;DHT22;41354;52.990;6.878;2022-08-11T15:46:43;37.70;36.00
55492;DHT22;41354;52.990;6.878;2022-08-11T15:49:14;38.00;36.40
55492;DHT22;41354;52.990;6.878;2022-08-11T15:52:02;38.20;36.10
55492;DHT22;41354;52.990;6.878;2022-08-11T15:54:39;38.30;35.80
55492;DHT22;41354;52.990;6.878;2022-08-11T15:57:41;38.00;35.80
55492;DHT22;41354;52.990;6.878;2022-08-11T16:00:49;37.80;35.60
55492;DHT22;41354;52.990;6.878;2022-08-11T16:03:51;37.50;36.10
55492;DHT22;41354;52.990;6.878;2022-08-11T16:07:12;37.60;36.50
55492;DHT22;41354;52.990;6.878;2022-08-11T16:09:45;37.60;36.50
55492;DHT22;41354;52.990;6.878;2022-08-11T16:12:24;37.20;36.40
55492;DHT22;41354;52.990;6.878;2022-08-11T16:14:58;37.20;36.30
55492;DHT22;41354;52.990;6.878;2022-08-11T16:21:20;37.50;36.40
55492;DHT22;41354;52.990;6.878;2022-08-11T16:24:20;37.30;36.60
55492;DHT22;41354;52.990;6.878;2022-08-11T16:26:55;37.10;37.00
55492;DHT22;41354;52.990;6.878;2022-08-11T16:29:36;37.40;36.50
55492;DHT22;41354;52.990;6.878;2022-08-11T16:32:04;37.50;36.80
55492;DHT22;41354;52.990;6.878;2022-08-11T16:35:01;37.70;36.90
55492;DHT22;41354;52.990;6.878;2022-08-11T16:37:46;37.80;36.20
55492;DHT22;41354;52.990;6.878;2022-08-11T16:40:32;37.80;36.00
55492;DHT22;41354;52.990;6.878;2022-08-11T16:42:58;37.40;36.10
55492;DHT22;41354;52.990;6.878;2022-08-11T16:45:58;37.30;36.30
55492;DHT22;41354;52.990;6.878;2022-08-11T16:48:45;37.30;36.70
55492;DHT22;41354;52.990;6.878;2022-08-11T16:51:12;37.10;37.50
55492;DHT22;41354;52.990;6.878;2022-08-11T16:53:39;37.10;38.60
55492;DHT22;41354;52.990;6.878;2022-08-11T16:56:08;36.90;39.20
55492;DHT22;41354;52.990;6.878;2022-08-11T16:58:35;37.00;39.20
55492;DHT22;41354;52.990;6.878;2022-08-11T17:01:32;37.00;38.40
55492;DHT22;41354;52.990;6.878;2022-08-11T17:04:06;37.00;38.20
55492;DHT22;41354;52.990;6.878;2022-08-11T17:06:51;36.80;38.00
55492;DHT22;41354;52.990;6.878;2022-08-11T17:09:37;36.20;37.40
55492;DHT22;41354;52.990;6.878;2022-08-11T17:12:25;36.00;37.60
55492;DHT22;41354;52.990;6.878;2022-08-11T17:15:14;35.80;38.10
55492;DHT22;41354;52.990;6.878;2022-08-11T17:18:02;35.70;38.80
55492;DHT22;41354;52.990;6.878;2022-08-11T17:20:30;35.60;39.70
55492;DHT22;41354;52.990;6.878;2022-08-11T17:22:56;35.50;39.40
55492;DHT22;41354;52.990;6.878;2022-08-11T17:25:41;35.30;39.20
55492;DHT22;41354;52.990;6.878;2022-08-11T17:28:09;35.20;39.50
55492;DHT22;41354;52.990;6.878;2022-08-11T17:30:37;34.80;39.80
55492;DHT22;41354;52.990;6.878;2022-08-11T17:33:23;34.30;40.60
55492;DHT22;41354;52.990;6.878;2022-08-11T17:36:08;33.50;41.40
55492;DHT22;41354;52.990;6.878;2022-08-11T17:38:34;32.80;42.60
55492;DHT22;41354;52.990;6.878;2022-08-11T17:41:01;32.40;43.30
55492;DHT22;41354;52.990;6.878;2022-08-11T17:43:47;32.00;44.10
55492;DHT22;41354;52.990;6.878;2022-08-11T17:47:00;31.60;45.00
55492;DHT22;41354;52.990;6.878;2022-08-11T17:50:13;31.00;46.50
55492;DHT22;41354;52.990;6.878;2022-08-11T19:32:17;23.80;99.90
55492;DHT22;41354;52.990;6.878;2022-08-11T19:36:49;23.70;99.90
55492;DHT22;41354;52.990;6.878;2022-08-11T19:43:40;23.20;99.90
55492;DHT22;41354;52.990;6.878;2022-08-11T19:47:10;23.10;99.90
55492;DHT22;41354;52.990;6.878;2022-08-11T19:58:43;22.60;99.90
55492;DHT22;41354;52.990;6.878;2022-08-11T20:20:58;21.90;99.90
55492;DHT22;41354;52.990;6.878;2022-08-11T20:24:40;21.80;99.90
55492;DHT22;41354;52.990;6.878;2022-08-11T20:28:10;21.70;99.90
55492;DHT22;41354;52.990;6.878;2022-08-11T20:31:24;21.60;99.90
55492;DHT22;41354;52.990;6.878;2022-08-11T20:34:27;21.50;99.90
55492;DHT22;41354;52.990;6.878;2022-08-11T20:38:00;21.40;99.90
55492;DHT22;41354;52.990;6.878;2022-08-11T20:55:48;21.10;99.90
55492;DHT22;41354;52.990;6.878;2022-08-11T20:59:02;20.90;99.90
55492;DHT22;41354;52.990;6.878;2022-08-11T21:02:17;20.90;99.90
55492;DHT22;41354;52.990;6.878;2022-08-11T21:05:09;20.80;99.90
55492;DHT22;41354;52.990;6.878;2022-08-11T21:08:00;20.70;99.90
55492;DHT22;41354;52.990;6.878;2022-08-11T21:11:04;20.70;99.90
55492;DHT22;41354;52.990;6.878;2022-08-11T21:13:56;20.70;99.90
55492;DHT22;41354;52.990;6.878;2022-08-11T21:17:18;20.60;99.90
55492;DHT22;41354;52.990;6.878;2022-08-11T21:20:14;20.50;99.90
55492;DHT22;41354;52.990;6.878;2022-08-11T21:23:05;20.50;99.90
55492;DHT22;41354;52.990;6.878;2022-08-11T21:26:17;20.50;99.90
55492;DHT22;41354;52.990;6.878;2022-08-11T21:29:09;20.50;99.90
55492;DHT22;41354;52.990;6.878;2022-08-11T21:35:44;20.40;99.90
55492;DHT22;41354;52.990;6.878;2022-08-11T21:38:53;20.40;99.90
55492;DHT22;41354;52.990;6.878;2022-08-11T21:42:17;20.40;99.90
55492;DHT22;41354;52.990;6.878;2022-08-11T21:46:06;20.30;99.90
55492;DHT22;41354;52.990;6.878;2022-08-11T21:53:01;20.20;99.90
55492;DHT22;41354;52.990;6.878;2022-08-11T21:56:16;20.10;99.90
55492;DHT22;41354;52.990;6.878;2022-08-11T22:06:49;20.00;99.90
55492;DHT22;41354;52.990;6.878;2022-08-11T22:09:56;19.90;99.90
55492;DHT22;41354;52.990;6.878;2022-08-11T22:12:44;19.80;99.90
55492;DHT22;41354;52.990;6.878;2022-08-11T22:16:00;19.80;99.90
55492;DHT22;41354;52.990;6.878;2022-08-11T22:19:26;19.80;99.90
55492;DHT22;41354;52.990;6.878;2022-08-11T22:22:36;19.70;99.90
55492;DHT22;41354;52.990;6.878;2022-08-11T22:25:41;19.70;99.90
55492;DHT22;41354;52.990;6.878;2022-08-11T22:28:43;19.60;99.90
55492;DHT22;41354;52.990;6.878;2022-08-11T22:32:26;19.60;99.90
55492;DHT22;41354;52.990;6.878;2022-08-11T22:36:08;19.40;99.90
55492;DHT22;41354;52.990;6.878;2022-08-11T22:39:13;19.40;99.90
55492;DHT22;41354;52.990;6.878;2022-08-11T22:41:59;19.40;99.90